sensor_id;sensor_type;location;lat;lon;timestamp;P1;durP1;ratioP1;P2;durP2;ratioP2
29380;SDS011;16364;52.490;13.326;2023-07-02T00:00:31;1.50;;;1.40;;
29380;SDS011;16364;52.490;13.326;2023-07-02T00:02:56;2.70;;;1.60;;
29380;SDS011;16364;52.490;13.326;2023-07-02T00:05:22;1.50;;;1.40;;
29380;SDS011;16364;52.490;13.326;2023-07-02T00:07:47;1.67;;;1.40;;
29380;SDS011;16364;52.490;13.326;2023-07-02T00:10:12;1.50;;;1.40;;
29380;SDS011;16364;52.490;13.326;2023-07-02T00:12:38;1.63;;;1.40;;
29380;SDS011;16364;52.490;13.326;2023-07-02T00:15:03;1.60;;;1.47;;
29380;SDS011;16364;52.490;13.326;2023-07-02T00:17:29;1.67;;;1.57;;
29380;SDS011;16364;52.490;13.326;2023-07-02T00:19:54;2.60;;;2.00;;
29380;SDS011;16364;52.490;13.326;2023-07-02T00:22:20;3.30;;;1.77;;
29380;SDS011;16364;52.490;13.326;2023-07-02T00:24:45;2.80;;;1.70;;
29380;SDS011;16364;52.490;13.326;2023-07-02T00:27:10;2.17;;;2.07;;
29380;SDS011;16364;52.490;13.326;2023-07-02T00:29:36;2.37;;;2.17;;
29380;SDS011;16364;52.490;13.326;2023-07-02T00:32:01;2.67;;;2.33;;
29380;SDS011;16364;52.490;13.326;2023-07-02T00:34:26;3.90;;;2.20;;
29380;SDS011;16364;52.490;13.326;2023-07-02T00:36:51;2.50;;;2.10;;
29380;SDS011;16364;52.490;13.326;2023-07-02T00:39:17;3.60;;;2.67;;
29380;SDS011;16364;52.490;13.326;2023-07-02T00:41:43;2.50;;;2.40;;
29380;SDS011;16364;52.490;13.326;2023-07-02T00:44:09;2.30;;;2.10;;
29380;SDS011;16364;52.490;13.326;2023-07-02T00:46:35;2.83;;;2.50;;
29380;SDS011;16364;52.490;13.326;2023-07-02T00:49:00;4.03;;;2.60;;
29380;SDS011;16364;52.490;13.326;2023-07-02T00:51:27;6.77;;;2.33;;
29380;SDS011;16364;52.490;13.326;2023-07-02T00:53:53;3.23;;;2.60;;
29380;SDS011;16364;52.490;13.326;2023-07-02T00:56:19;2.43;;;2.23;;
29380;SDS011;16364;52.490;13.326;2023-07-02T00:58:45;2.57;;;2.37;;
29380;SDS011;16364;52.490;13.326;2023-07-02T01:01:18;2.70;;;2.50;;
29380;SDS011;16364;52.490;13.326;2023-07-02T01:06:19;3.67;;;3.47;;
29380;SDS011;16364;52.490;13.326;2023-07-02T01:08:45;6.63;;;3.50;;
29380;SDS011;16364;52.490;13.326;2023-07-02T01:11:10;3.83;;;3.30;;
29380;SDS011;16364;52.490;13.326;2023-07-02T01:13:35;3.33;;;3.00;;
29380;SDS011;16364;52.490;13.326;2023-07-02T01:16:01;3.07;;;2.73;;
29380;SDS011;16364;52.490;13.326;2023-07-02T01:18:26;2.90;;;2.70;;
29380;SDS011;16364;52.490;13.326;2023-07-02T01:20:52;4.77;;;3.00;;
29380;SDS011;16364;52.490;13.326;2023-07-02T01:23:18;4.23;;;3.43;;
29380;SDS011;16364;52.490;13.326;2023-07-02T01:25:43;4.43;;;4.03;;
29380;SDS011;16364;52.490;13.326;2023-07-02T01:28:10;3.40;;;3.20;;
29380;SDS011;16364;52.490;13.326;2023-07-02T01:30:38;3.93;;;3.53;;
29380;SDS011;16364;52.490;13.326;2023-07-02T01:33:04;3.83;;;3.53;;
29380;SDS011;16364;52.490;13.326;2023-07-02T01:35:29;4.73;;;4.33;;
29380;SDS011;16364;52.490;13.326;2023-07-02T01:37:54;5.47;;;4.93;;
29380;SDS011;16364;52.490;13.326;2023-07-02T01:40:19;4.83;;;3.77;;
29380;SDS011;16364;52.490;13.326;2023-07-02T01:42:45;5.00;;;4.60;;
29380;SDS011;16364;52.490;13.326;2023-07-02T01:45:10;6.07;;;4.93;;
29380;SDS011;16364;52.490;13.326;2023-07-02T01:47:35;4.97;;;4.57;;
29380;SDS011;16364;52.490;13.326;2023-07-02T01:50:01;5.63;;;4.53;;
29380;SDS011;16364;52.490;13.326;2023-07-02T01:52:26;5.83;;;5.07;;
29380;SDS011;16364;52.490;13.326;2023-07-02T01:54:52;4.90;;;4.50;;
29380;SDS011;16364;52.490;13.326;2023-07-02T01:57:18;6.03;;;5.63;;
29380;SDS011;16364;52.490;13.326;2023-07-02T01:59:43;6.73;;;5.90;;
29380;SDS011;16364;52.490;13.326;2023-07-02T02:02:08;6.07;;;5.67;;
29380;SDS011;16364;52.490;13.326;2023-07-02T02:04:33;6.43;;;5.83;;
29380;SDS011;16364;52.490;13.326;2023-07-02T02:06:59;8.63;;;5.60;;
29380;SDS011;16364;52.490;13.326;2023-07-02T02:09:24;5.60;;;5.10;;
29380;SDS011;16364;52.490;13.326;2023-07-02T02:11:49;6.03;;;5.60;;
29380;SDS011;16364;52.490;13.326;2023-07-02T02:14:15;5.50;;;5.10;;
29380;SDS011;16364;52.490;13.326;2023-07-02T02:16:40;5.97;;;5.50;;
29380;SDS011;16364;52.490;13.326;2023-07-02T02:19:10;11.63;;;5.23;;
29380;SDS011;16364;52.490;13.326;2023-07-02T02:21:35;5.00;;;4.70;;
29380;SDS011;16364;52.490;13.326;2023-07-02T02:24:00;4.90;;;4.50;;
29380;SDS011;16364;52.490;13.326;2023-07-02T02:26:26;5.67;;;5.27;;
29380;SDS011;16364;52.490;13.326;2023-07-02T02:28:51;4.80;;;4.40;;
29380;SDS011;16364;52.490;13.326;2023-07-02T02:31:16;8.63;;;4.73;;
29380;SDS011;16364;52.490;13.326;2023-07-02T02:33:42;4.00;;;3.80;;
29380;SDS011;16364;52.490;13.326;2023-07-02T02:36:07;5.00;;;4.57;;
29380;SDS011;16364;52.490;13.326;2023-07-02T02:38:33;5.90;;;5.37;;
29380;SDS011;16364;52.490;13.326;2023-07-02T02:40:59;3.90;;;3.60;;
29380;SDS011;16364;52.490;13.326;2023-07-02T02:43:24;5.40;;;3.97;;
29380;SDS011;16364;52.490;13.326;2023-07-02T02:45:49;4.97;;;4.27;;
29380;SDS011;16364;52.490;13.326;2023-07-02T02:48:14;4.07;;;3.77;;
29380;SDS011;16364;52.490;13.326;2023-07-02T02:50:40;5.13;;;4.57;;
29380;SDS011;16364;52.490;13.326;2023-07-02T02:53:08;5.37;;;4.33;;
29380;SDS011;16364;52.490;13.326;2023-07-02T02:55:33;3.70;;;3.50;;
29380;SDS011;16364;52.490;13.326;2023-07-02T02:57:59;4.67;;;4.27;;
29380;SDS011;16364;52.490;13.326;2023-07-02T03:00:24;5.23;;;4.90;;
29380;SDS011;16364;52.490;13.326;2023-07-02T03:02:49;5.47;;;4.83;;
29380;SDS011;16364;52.490;13.326;2023-07-02T03:05:15;6.73;;;4.37;;
29380;SDS011;16364;52.490;13.326;2023-07-02T03:07:41;5.77;;;5.27;;
29380;SDS011;16364;52.490;13.326;2023-07-02T03:10:06;5.30;;;3.67;;
29380;SDS011;16364;52.490;13.326;2023-07-02T03:12:31;5.37;;;3.80;;
29380;SDS011;16364;52.490;13.326;2023-07-02T03:14:57;4.73;;;4.33;;
29380;SDS011;16364;52.490;13.326;2023-07-02T03:17:22;4.83;;;4.43;;
29380;SDS011;16364;52.490;13.326;2023-07-02T03:19:47;4.30;;;3.97;;
29380;SDS011;16364;52.490;13.326;2023-07-02T03:22:13;4.17;;;3.80;;
29380;SDS011;16364;52.490;13.326;2023-07-02T03:24:38;4.20;;;3.57;;
29380;SDS011;16364;52.490;13.326;2023-07-02T03:27:03;4.33;;;4.00;;
29380;SDS011;16364;52.490;13.326;2023-07-02T03:29:29;4.33;;;3.93;;
29380;SDS011;16364;52.490;13.326;2023-07-02T03:31:54;4.57;;;3.80;;
29380;SDS011;16364;52.490;13.326;2023-07-02T03:34:19;4.03;;;3.63;;
29380;SDS011;16364;52.490;13.326;2023-07-02T03:36:44;3.27;;;2.97;;
29380;SDS011;16364;52.490;13.326;2023-07-02T03:39:10;3.17;;;2.97;;
29380;SDS011;16364;52.490;13.326;2023-07-02T03:41:35;3.27;;;3.07;;
29380;SDS011;16364;52.490;13.326;2023-07-02T03:44:00;5.07;;;3.73;;
29380;SDS011;16364;52.490;13.326;2023-07-02T03:46:25;4.00;;;3.40;;
29380;SDS011;16364;52.490;13.326;2023-07-02T03:48:51;3.00;;;2.77;;
29380;SDS011;16364;52.490;13.326;2023-07-02T03:51:16;3.47;;;3.17;;
29380;SDS011;16364;52.490;13.326;2023-07-02T03:53:41;4.03;;;2.90;;
29380;SDS011;16364;52.490;13.326;2023-07-02T03:56:07;3.57;;;3.27;;
29380;SDS011;16364;52.490;13.326;2023-07-02T03:58:32;4.00;;;3.40;;
29380;SDS011;16364;52.490;13.326;2023-07-02T04:00:58;8.50;;;3.17;;
29380;SDS011;16364;52.490;13.326;2023-07-02T04:03:24;4.00;;;3.23;;
29380;SDS011;16364;52.490;13.326;2023-07-02T04:05:49;3.33;;;3.10;;
29380;SDS011;16364;52.490;13.326;2023-07-02T04:08:14;7.27;;;3.00;;
29380;SDS011;16364;52.490;13.326;2023-07-02T04:10:40;3.77;;;3.20;;
29380;SDS011;16364;52.490;13.326;2023-07-02T04:13:05;2.93;;;2.73;;
29380;SDS011;16364;52.490;13.326;2023-07-02T04:15:30;3.13;;;2.60;;
29380;SDS011;16364;52.490;13.326;2023-07-02T04:17:57;3.37;;;3.10;;
29380;SDS011;16364;52.490;13.326;2023-07-02T04:20:22;4.60;;;3.67;;
29380;SDS011;16364;52.490;13.326;2023-07-02T04:22:47;2.57;;;2.40;;
29380;SDS011;16364;52.490;13.326;2023-07-02T04:25:13;3.67;;;3.47;;
29380;SDS011;16364;52.490;13.326;2023-07-02T04:27:41;3.40;;;2.60;;
29380;SDS011;16364;52.490;13.326;2023-07-02T04:30:07;4.13;;;2.50;;
29380;SDS011;16364;52.490;13.326;2023-07-02T04:32:33;3.40;;;2.73;;
29380;SDS011;16364;52.490;13.326;2023-07-02T04:34:58;3.23;;;2.93;;
29380;SDS011;16364;52.490;13.326;2023-07-02T04:37:23;5.13;;;3.50;;
29380;SDS011;16364;52.490;13.326;2023-07-02T04:39:49;3.40;;;3.10;;
29380;SDS011;16364;52.490;13.326;2023-07-02T04:42:14;2.60;;;2.33;;
29380;SDS011;16364;52.490;13.326;2023-07-02T04:44:39;3.27;;;2.50;;
29380;SDS011;16364;52.490;13.326;2023-07-02T04:47:08;3.57;;;3.27;;
29380;SDS011;16364;52.490;13.326;2023-07-02T04:49:33;2.50;;;2.30;;
29380;SDS011;16364;52.490;13.326;2023-07-02T04:51:58;3.27;;;2.97;;
29380;SDS011;16364;52.490;13.326;2023-07-02T04:54:24;2.93;;;2.63;;
29380;SDS011;16364;52.490;13.326;2023-07-02T04:56:49;4.17;;;2.80;;
29380;SDS011;16364;52.490;13.326;2023-07-02T04:59:14;2.97;;;2.67;;
29380;SDS011;16364;52.490;13.326;2023-07-02T05:01:40;2.87;;;2.63;;
29380;SDS011;16364;52.490;13.326;2023-07-02T05:04:05;3.30;;;2.97;;
29380;SDS011;16364;52.490;13.326;2023-07-02T05:06:31;4.13;;;2.33;;
29380;SDS011;16364;52.490;13.326;2023-07-02T05:08:56;3.10;;;2.63;;
29380;SDS011;16364;52.490;13.326;2023-07-02T05:11:21;6.30;;;3.07;;
29380;SDS011;16364;52.490;13.326;2023-07-02T05:13:46;2.43;;;2.10;;
29380;SDS011;16364;52.490;13.326;2023-07-02T05:16:12;3.97;;;3.13;;
29380;SDS011;16364;52.490;13.326;2023-07-02T05:18:38;3.13;;;2.83;;
29380;SDS011;16364;52.490;13.326;2023-07-02T05:21:03;3.50;;;2.40;;
29380;SDS011;16364;52.490;13.326;2023-07-02T05:23:28;5.40;;;3.80;;
29380;SDS011;16364;52.490;13.326;2023-07-02T05:25:53;3.10;;;2.40;;
29380;SDS011;16364;52.490;13.326;2023-07-02T05:28:19;4.33;;;2.43;;
29380;SDS011;16364;52.490;13.326;2023-07-02T05:30:44;4.40;;;2.60;;
29380;SDS011;16364;52.490;13.326;2023-07-02T05:33:09;4.80;;;2.40;;
29380;SDS011;16364;52.490;13.326;2023-07-02T05:35:34;2.63;;;2.43;;
29380;SDS011;16364;52.490;13.326;2023-07-02T05:38:00;5.47;;;2.43;;
29380;SDS011;16364;52.490;13.326;2023-07-02T05:40:25;2.90;;;2.70;;
29380;SDS011;16364;52.490;13.326;2023-07-02T05:42:50;3.27;;;2.97;;
29380;SDS011;16364;52.490;13.326;2023-07-02T05:45:15;3.37;;;2.60;;
29380;SDS011;16364;52.490;13.326;2023-07-02T05:47:41;2.53;;;2.33;;
29380;SDS011;16364;52.490;13.326;2023-07-02T05:50:07;3.07;;;2.80;;
29380;SDS011;16364;52.490;13.326;2023-07-02T05:52:32;2.60;;;2.40;;
29380;SDS011;16364;52.490;13.326;2023-07-02T05:54:57;2.70;;;2.33;;
29380;SDS011;16364;52.490;13.326;2023-07-02T05:57:23;5.50;;;2.13;;
29380;SDS011;16364;52.490;13.326;2023-07-02T05:59:48;5.03;;;2.50;;
29380;SDS011;16364;52.490;13.326;2023-07-02T06:02:13;5.40;;;2.83;;
29380;SDS011;16364;52.490;13.326;2023-07-02T06:04:38;4.17;;;2.70;;
29380;SDS011;16364;52.490;13.326;2023-07-02T06:07:04;4.87;;;2.60;;
29380;SDS011;16364;52.490;13.326;2023-07-02T06:09:29;3.67;;;2.80;;
29380;SDS011;16364;52.490;13.326;2023-07-02T06:11:54;3.33;;;2.20;;
29380;SDS011;16364;52.490;13.326;2023-07-02T06:14:19;3.07;;;2.23;;
29380;SDS011;16364;52.490;13.326;2023-07-02T06:16:45;2.20;;;2.00;;
29380;SDS011;16364;52.490;13.326;2023-07-02T06:19:10;4.80;;;2.10;;
29380;SDS011;16364;52.490;13.326;2023-07-02T06:21:36;2.00;;;1.80;;
29380;SDS011;16364;52.490;13.326;2023-07-02T06:24:01;4.03;;;2.37;;
29380;SDS011;16364;52.490;13.326;2023-07-02T06:26:27;4.20;;;2.33;;
29380;SDS011;16364;52.490;13.326;2023-07-02T06:28:52;2.13;;;1.93;;
29380;SDS011;16364;52.490;13.326;2023-07-02T06:31:17;5.23;;;2.20;;
29380;SDS011;16364;52.490;13.326;2023-07-02T06:33:42;1.70;;;1.60;;
29380;SDS011;16364;52.490;13.326;2023-07-02T06:36:08;3.77;;;2.20;;
29380;SDS011;16364;52.490;13.326;2023-07-02T06:38:33;4.10;;;2.40;;
29380;SDS011;16364;52.490;13.326;2023-07-02T06:40:58;3.87;;;2.40;;
29380;SDS011;16364;52.490;13.326;2023-07-02T06:43:23;4.20;;;2.00;;
29380;SDS011;16364;52.490;13.326;2023-07-02T06:45:49;2.73;;;2.20;;
29380;SDS011;16364;52.490;13.326;2023-07-02T06:48:14;3.17;;;1.83;;
29380;SDS011;16364;52.490;13.326;2023-07-02T06:50:43;3.10;;;2.50;;
29380;SDS011;16364;52.490;13.326;2023-07-02T06:53:09;2.90;;;2.70;;
29380;SDS011;16364;52.490;13.326;2023-07-02T06:55:34;5.30;;;2.23;;
29380;SDS011;16364;52.490;13.326;2023-07-02T06:57:59;3.00;;;2.17;;
29380;SDS011;16364;52.490;13.326;2023-07-02T07:00:24;3.20;;;2.00;;
29380;SDS011;16364;52.490;13.326;2023-07-02T07:02:49;3.53;;;2.13;;
29380;SDS011;16364;52.490;13.326;2023-07-02T07:05:15;3.40;;;2.10;;
29380;SDS011;16364;52.490;13.326;2023-07-02T07:07:40;2.67;;;2.20;;
29380;SDS011;16364;52.490;13.326;2023-07-02T07:10:06;3.13;;;2.47;;
29380;SDS011;16364;52.490;13.326;2023-07-02T07:12:31;3.03;;;2.77;;
29380;SDS011;16364;52.490;13.326;2023-07-02T07:14:57;2.73;;;2.53;;
29380;SDS011;16364;52.490;13.326;2023-07-02T07:17:22;6.03;;;2.53;;
29380;SDS011;16364;52.490;13.326;2023-07-02T07:19:47;2.50;;;2.30;;
29380;SDS011;16364;52.490;13.326;2023-07-02T07:22:12;3.83;;;2.00;;
29380;SDS011;16364;52.490;13.326;2023-07-02T07:24:38;3.53;;;2.07;;
29380;SDS011;16364;52.490;13.326;2023-07-02T07:27:03;8.93;;;2.23;;
29380;SDS011;16364;52.490;13.326;2023-07-02T07:29:28;2.47;;;2.20;;
29380;SDS011;16364;52.490;13.326;2023-07-02T07:31:54;2.63;;;2.30;;
29380;SDS011;16364;52.490;13.326;2023-07-02T07:34:19;3.17;;;2.87;;
29380;SDS011;16364;52.490;13.326;2023-07-02T07:36:44;7.63;;;2.20;;
29380;SDS011;16364;52.490;13.326;2023-07-02T07:39:10;3.30;;;2.23;;
29380;SDS011;16364;52.490;13.326;2023-07-02T07:41:35;4.17;;;2.13;;
29380;SDS011;16364;52.490;13.326;2023-07-02T07:44:00;3.90;;;2.70;;
29380;SDS011;16364;52.490;13.326;2023-07-02T07:46:26;3.83;;;2.30;;
29380;SDS011;16364;52.490;13.326;2023-07-02T07:48:51;5.83;;;2.57;;
29380;SDS011;16364;52.490;13.326;2023-07-02T07:51:17;3.40;;;2.00;;
29380;SDS011;16364;52.490;13.326;2023-07-02T07:53:42;3.97;;;2.30;;
29380;SDS011;16364;52.490;13.326;2023-07-02T07:56:08;4.43;;;1.87;;
29380;SDS011;16364;52.490;13.326;2023-07-02T07:58:33;2.50;;;2.30;;
29380;SDS011;16364;52.490;13.326;2023-07-02T08:00:58;2.90;;;2.20;;
29380;SDS011;16364;52.490;13.326;2023-07-02T08:03:23;4.70;;;2.23;;
29380;SDS011;16364;52.490;13.326;2023-07-02T08:05:49;5.37;;;3.07;;
29380;SDS011;16364;52.490;13.326;2023-07-02T08:08:14;2.60;;;2.40;;
29380;SDS011;16364;52.490;13.326;2023-07-02T08:10:39;4.00;;;2.53;;
29380;SDS011;16364;52.490;13.326;2023-07-02T08:13:05;2.40;;;2.20;;
29380;SDS011;16364;52.490;13.326;2023-07-02T08:15:30;4.53;;;2.53;;
29380;SDS011;16364;52.490;13.326;2023-07-02T08:17:55;2.30;;;2.10;;
29380;SDS011;16364;52.490;13.326;2023-07-02T08:20:23;2.83;;;2.60;;
29380;SDS011;16364;52.490;13.326;2023-07-02T08:22:48;3.17;;;2.97;;
29380;SDS011;16364;52.490;13.326;2023-07-02T08:25:16;3.33;;;2.43;;
29380;SDS011;16364;52.490;13.326;2023-07-02T08:27:42;2.87;;;2.67;;
29380;SDS011;16364;52.490;13.326;2023-07-02T08:30:07;3.60;;;2.30;;
29380;SDS011;16364;52.490;13.326;2023-07-02T08:32:33;5.43;;;2.90;;
29380;SDS011;16364;52.490;13.326;2023-07-02T08:34:58;7.23;;;2.97;;
29380;SDS011;16364;52.490;13.326;2023-07-02T08:37:23;3.20;;;2.80;;
29380;SDS011;16364;52.490;13.326;2023-07-02T08:39:49;4.70;;;3.27;;
29380;SDS011;16364;52.490;13.326;2023-07-02T08:42:14;3.93;;;3.43;;
29380;SDS011;16364;52.490;13.326;2023-07-02T08:44:39;8.73;;;3.37;;
29380;SDS011;16364;52.490;13.326;2023-07-02T08:47:05;6.63;;;3.97;;
29380;SDS011;16364;52.490;13.326;2023-07-02T08:49:30;5.90;;;3.13;;
29380;SDS011;16364;52.490;13.326;2023-07-02T08:51:55;4.47;;;2.57;;
29380;SDS011;16364;52.490;13.326;2023-07-02T08:54:21;7.33;;;3.77;;
29380;SDS011;16364;52.490;13.326;2023-07-02T08:56:46;5.20;;;2.70;;
29380;SDS011;16364;52.490;13.326;2023-07-02T08:59:12;5.33;;;3.30;;
29380;SDS011;16364;52.490;13.326;2023-07-02T09:04:16;3.33;;;2.70;;
29380;SDS011;16364;52.490;13.326;2023-07-02T09:06:41;3.07;;;2.70;;
29380;SDS011;16364;52.490;13.326;2023-07-02T09:09:06;6.53;;;3.23;;
29380;SDS011;16364;52.490;13.326;2023-07-02T09:11:32;8.03;;;3.23;;
29380;SDS011;16364;52.490;13.326;2023-07-02T09:13:58;4.03;;;3.13;;
29380;SDS011;16364;52.490;13.326;2023-07-02T09:18:54;4.37;;;3.53;;
29380;SDS011;16364;52.490;13.326;2023-07-02T09:21:20;9.30;;;3.00;;
29380;SDS011;16364;52.490;13.326;2023-07-02T09:23:45;3.40;;;3.10;;
29380;SDS011;16364;52.490;13.326;2023-07-02T09:26:18;4.30;;;2.73;;
29380;SDS011;16364;52.490;13.326;2023-07-02T09:28:44;3.47;;;3.00;;
29380;SDS011;16364;52.490;13.326;2023-07-02T09:31:09;4.40;;;3.97;;
29380;SDS011;16364;52.490;13.326;2023-07-02T09:33:34;4.10;;;3.37;;
29380;SDS011;16364;52.490;13.326;2023-07-02T09:35:59;3.97;;;3.57;;
29380;SDS011;16364;52.490;13.326;2023-07-02T09:38:24;4.83;;;3.47;;
29380;SDS011;16364;52.490;13.326;2023-07-02T09:40:51;7.57;;;3.67;;
29380;SDS011;16364;52.490;13.326;2023-07-02T09:43:17;6.90;;;4.40;;
29380;SDS011;16364;52.490;13.326;2023-07-02T09:45:44;8.77;;;4.37;;
29380;SDS011;16364;52.490;13.326;2023-07-02T09:48:11;7.10;;;4.33;;
29380;SDS011;16364;52.490;13.326;2023-07-02T09:50:38;4.77;;;3.70;;
29380;SDS011;16364;52.490;13.326;2023-07-02T09:53:03;6.07;;;4.03;;
29380;SDS011;16364;52.490;13.326;2023-07-02T09:55:28;7.90;;;4.23;;
29380;SDS011;16364;52.490;13.326;2023-07-02T09:57:54;6.27;;;3.53;;
29380;SDS011;16364;52.490;13.326;2023-07-02T10:00:19;7.20;;;4.20;;
29380;SDS011;16364;52.490;13.326;2023-07-02T10:02:48;13.07;;;5.20;;
29380;SDS011;16364;52.490;13.326;2023-07-02T10:05:24;5.27;;;4.53;;
29380;SDS011;16364;52.490;13.326;2023-07-02T10:07:50;8.00;;;5.03;;
29380;SDS011;16364;52.490;13.326;2023-07-02T10:10:25;7.53;;;4.80;;
29380;SDS011;16364;52.490;13.326;2023-07-02T10:12:50;7.60;;;4.83;;
29380;SDS011;16364;52.490;13.326;2023-07-02T10:15:23;7.90;;;4.50;;
29380;SDS011;16364;52.490;13.326;2023-07-02T10:17:54;9.50;;;5.07;;
29380;SDS011;16364;52.490;13.326;2023-07-02T10:20:30;4.87;;;4.10;;
29380;SDS011;16364;52.490;13.326;2023-07-02T10:22:56;9.13;;;4.70;;
29380;SDS011;16364;52.490;13.326;2023-07-02T10:25:25;5.17;;;4.30;;
29380;SDS011;16364;52.490;13.326;2023-07-02T10:27:50;7.87;;;4.90;;
29380;SDS011;16364;52.490;13.326;2023-07-02T10:30:16;6.27;;;4.23;;
29380;SDS011;16364;52.490;13.326;2023-07-02T10:32:41;9.73;;;4.73;;
29380;SDS011;16364;52.490;13.326;2023-07-02T10:37:38;7.30;;;4.07;;
29380;SDS011;16364;52.490;13.326;2023-07-02T10:40:04;7.50;;;4.80;;
29380;SDS011;16364;52.490;13.326;2023-07-02T10:42:30;7.23;;;4.40;;
29380;SDS011;16364;52.490;13.326;2023-07-02T10:44:56;12.07;;;5.67;;
29380;SDS011;16364;52.490;13.326;2023-07-02T10:47:21;7.43;;;4.77;;
29380;SDS011;16364;52.490;13.326;2023-07-02T10:49:46;5.60;;;4.00;;
29380;SDS011;16364;52.490;13.326;2023-07-02T10:52:11;6.37;;;4.50;;
29380;SDS011;16364;52.490;13.326;2023-07-02T10:57:06;10.20;;;4.80;;
29380;SDS011;16364;52.490;13.326;2023-07-02T10:59:31;6.77;;;4.93;;
29380;SDS011;16364;52.490;13.326;2023-07-02T11:01:56;9.50;;;6.10;;
29380;SDS011;16364;52.490;13.326;2023-07-02T11:04:26;7.47;;;4.63;;
29380;SDS011;16364;52.490;13.326;2023-07-02T11:06:52;6.77;;;4.50;;
29380;SDS011;16364;52.490;13.326;2023-07-02T11:09:17;12.77;;;5.60;;
29380;SDS011;16364;52.490;13.326;2023-07-02T11:11:50;7.23;;;5.00;;
29380;SDS011;16364;52.490;13.326;2023-07-02T11:14:15;8.60;;;4.50;;
29380;SDS011;16364;52.490;13.326;2023-07-02T11:16:53;6.87;;;5.20;;
29380;SDS011;16364;52.490;13.326;2023-07-02T11:19:19;11.13;;;4.80;;
29380;SDS011;16364;52.490;13.326;2023-07-02T11:21:50;10.30;;;5.40;;
29380;SDS011;16364;52.490;13.326;2023-07-02T11:24:15;8.73;;;5.93;;
29380;SDS011;16364;52.490;13.326;2023-07-02T11:26:40;10.90;;;5.53;;
29380;SDS011;16364;52.490;13.326;2023-07-02T11:29:12;8.10;;;5.43;;
29380;SDS011;16364;52.490;13.326;2023-07-02T11:31:42;9.50;;;4.90;;
29380;SDS011;16364;52.490;13.326;2023-07-02T11:34:11;8.70;;;5.80;;
29380;SDS011;16364;52.490;13.326;2023-07-02T11:36:36;12.73;;;5.77;;
29380;SDS011;16364;52.490;13.326;2023-07-02T11:39:02;14.80;;;5.97;;
29380;SDS011;16364;52.490;13.326;2023-07-02T11:41:35;10.60;;;5.47;;
29380;SDS011;16364;52.490;13.326;2023-07-02T11:44:01;6.13;;;5.23;;
29380;SDS011;16364;52.490;13.326;2023-07-02T11:46:26;9.50;;;5.20;;
29380;SDS011;16364;52.490;13.326;2023-07-02T11:48:51;7.80;;;4.93;;
29380;SDS011;16364;52.490;13.326;2023-07-02T11:51:16;10.50;;;5.23;;
29380;SDS011;16364;52.490;13.326;2023-07-02T11:53:42;7.27;;;5.20;;
29380;SDS011;16364;52.490;13.326;2023-07-02T11:56:07;14.77;;;4.73;;
29380;SDS011;16364;52.490;13.326;2023-07-02T11:58:32;9.70;;;5.70;;
29380;SDS011;16364;52.490;13.326;2023-07-02T12:00:57;10.53;;;5.10;;
29380;SDS011;16364;52.490;13.326;2023-07-02T12:03:22;8.83;;;4.83;;
29380;SDS011;16364;52.490;13.326;2023-07-02T12:05:48;8.23;;;5.13;;
29380;SDS011;16364;52.490;13.326;2023-07-02T12:08:13;16.10;;;5.23;;
29380;SDS011;16364;52.490;13.326;2023-07-02T12:10:38;7.97;;;4.80;;
29380;SDS011;16364;52.490;13.326;2023-07-02T12:13:03;7.57;;;4.70;;
29380;SDS011;16364;52.490;13.326;2023-07-02T12:15:29;9.37;;;4.30;;
29380;SDS011;16364;52.490;13.326;2023-07-02T12:17:54;9.57;;;5.50;;
29380;SDS011;16364;52.490;13.326;2023-07-02T12:20:19;7.13;;;5.13;;
29380;SDS011;16364;52.490;13.326;2023-07-02T12:22:44;8.30;;;5.20;;
29380;SDS011;16364;52.490;13.326;2023-07-02T12:25:10;8.10;;;4.50;;
29380;SDS011;16364;52.490;13.326;2023-07-02T12:27:35;7.53;;;4.60;;
29380;SDS011;16364;52.490;13.326;2023-07-02T12:30:00;12.67;;;5.50;;
29380;SDS011;16364;52.490;13.326;2023-07-02T12:32:26;13.83;;;5.20;;
29380;SDS011;16364;52.490;13.326;2023-07-02T12:34:51;7.10;;;4.90;;
29380;SDS011;16364;52.490;13.326;2023-07-02T12:37:17;9.50;;;5.30;;
29380;SDS011;16364;52.490;13.326;2023-07-02T12:39:43;6.73;;;5.13;;
29380;SDS011;16364;52.490;13.326;2023-07-02T12:42:09;7.50;;;5.50;;
29380;SDS011;16364;52.490;13.326;2023-07-02T12:44:35;6.20;;;5.40;;
29380;SDS011;16364;52.490;13.326;2023-07-02T12:47:00;7.50;;;5.10;;
29380;SDS011;16364;52.490;13.326;2023-07-02T12:49:25;11.13;;;5.10;;
29380;SDS011;16364;52.490;13.326;2023-07-02T12:51:50;8.53;;;5.10;;
29380;SDS011;16364;52.490;13.326;2023-07-02T12:54:16;8.23;;;4.90;;
29380;SDS011;16364;52.490;13.326;2023-07-02T12:56:41;7.87;;;5.27;;
29380;SDS011;16364;52.490;13.326;2023-07-02T12:59:06;7.50;;;4.70;;
29380;SDS011;16364;52.490;13.326;2023-07-02T13:01:31;6.53;;;5.33;;
29380;SDS011;16364;52.490;13.326;2023-07-02T13:03:56;10.60;;;5.30;;
29380;SDS011;16364;52.490;13.326;2023-07-02T13:06:22;13.60;;;5.13;;
29380;SDS011;16364;52.490;13.326;2023-07-02T13:08:47;11.77;;;5.40;;
29380;SDS011;16364;52.490;13.326;2023-07-02T13:11:12;9.93;;;5.73;;
29380;SDS011;16364;52.490;13.326;2023-07-02T13:13:39;13.47;;;4.90;;
29380;SDS011;16364;52.490;13.326;2023-07-02T13:16:06;8.50;;;5.70;;
29380;SDS011;16364;52.490;13.326;2023-07-02T13:18:31;8.33;;;5.63;;
29380;SDS011;16364;52.490;13.326;2023-07-02T13:20:56;8.30;;;5.77;;
29380;SDS011;16364;52.490;13.326;2023-07-02T13:23:21;8.20;;;5.10;;
29380;SDS011;16364;52.490;13.326;2023-07-02T13:25:46;12.43;;;4.93;;
29380;SDS011;16364;52.490;13.326;2023-07-02T13:28:12;8.90;;;4.97;;
29380;SDS011;16364;52.490;13.326;2023-07-02T13:30:37;11.83;;;5.20;;
29380;SDS011;16364;52.490;13.326;2023-07-02T13:33:02;12.37;;;6.53;;
29380;SDS011;16364;52.490;13.326;2023-07-02T13:35:28;8.37;;;5.70;;
29380;SDS011;16364;52.490;13.326;2023-07-02T13:37:53;10.70;;;5.13;;
29380;SDS011;16364;52.490;13.326;2023-07-02T13:40:18;12.70;;;5.40;;
29380;SDS011;16364;52.490;13.326;2023-07-02T13:42:44;11.83;;;6.40;;
29380;SDS011;16364;52.490;13.326;2023-07-02T13:45:09;9.23;;;4.60;;
29380;SDS011;16364;52.490;13.326;2023-07-02T13:47:35;10.53;;;5.50;;
29380;SDS011;16364;52.490;13.326;2023-07-02T13:50:01;7.40;;;5.10;;
29380;SDS011;16364;52.490;13.326;2023-07-02T13:52:27;5.63;;;4.60;;
29380;SDS011;16364;52.490;13.326;2023-07-02T13:54:52;9.63;;;4.77;;
29380;SDS011;16364;52.490;13.326;2023-07-02T13:57:17;10.33;;;5.03;;
29380;SDS011;16364;52.490;13.326;2023-07-02T13:59:42;8.73;;;5.17;;
29380;SDS011;16364;52.490;13.326;2023-07-02T14:02:08;7.00;;;5.77;;
29380;SDS011;16364;52.490;13.326;2023-07-02T14:04:33;6.97;;;4.80;;
29380;SDS011;16364;52.490;13.326;2023-07-02T14:06:58;10.10;;;6.23;;
29380;SDS011;16364;52.490;13.326;2023-07-02T14:09:23;12.93;;;6.10;;
29380;SDS011;16364;52.490;13.326;2023-07-02T14:11:49;11.83;;;5.77;;
29380;SDS011;16364;52.490;13.326;2023-07-02T14:14:14;9.10;;;5.20;;
29380;SDS011;16364;52.490;13.326;2023-07-02T14:16:39;10.07;;;5.67;;
29380;SDS011;16364;52.490;13.326;2023-07-02T14:19:05;9.03;;;5.30;;
29380;SDS011;16364;52.490;13.326;2023-07-02T14:21:30;9.43;;;5.17;;
29380;SDS011;16364;52.490;13.326;2023-07-02T14:23:55;8.70;;;4.93;;
29380;SDS011;16364;52.490;13.326;2023-07-02T14:26:20;8.17;;;4.63;;
29380;SDS011;16364;52.490;13.326;2023-07-02T14:28:46;9.53;;;4.93;;
29380;SDS011;16364;52.490;13.326;2023-07-02T14:31:11;6.67;;;5.27;;
29380;SDS011;16364;52.490;13.326;2023-07-02T14:33:37;8.47;;;4.17;;
29380;SDS011;16364;52.490;13.326;2023-07-02T14:36:03;8.97;;;5.30;;